createdAt,value
2022-09-28T00:00:20.749Z,15.64
2022-09-28T00:01:29.007Z,15.66
2022-09-28T00:02:37.070Z,15.59
2022-09-28T00:03:40.563Z,15.60
2022-09-28T00:04:43.357Z,15.56
2022-09-28T00:05:46.007Z,15.53
2022-09-28T00:06:50.128Z,15.56
2022-09-28T00:07:55.646Z,15.62
2022-09-28T00:09:00.074Z,15.63
2022-09-28T00:10:04.309Z,15.64
2022-09-28T00:11:08.763Z,15.71
2022-09-28T00:12:12.049Z,15.75
2022-09-28T00:13:15.260Z,15.78
2022-09-28T00:14:18.526Z,15.80
2022-09-28T00:15:21.624Z,15.80
2022-09-28T00:16:26.249Z,15.76
2022-09-28T00:17:29.566Z,15.77
2022-09-28T00:18:32.768Z,15.78
2022-09-28T00:19:37.294Z,15.79
2022-09-28T00:20:40.718Z,15.85
2022-09-28T00:21:45.507Z,15.81
2022-09-28T00:22:48.761Z,15.83
2022-09-28T00:24:10.543Z,15.86
2022-09-28T00:25:16.720Z,15.89
2022-09-28T00:26:22.910Z,15.94
2022-09-28T00:27:26.708Z,15.86
2022-09-28T00:28:30.306Z,15.85
2022-09-28T00:29:37.395Z,15.85
2022-09-28T00:30:40.802Z,15.85
2022-09-28T00:31:44.645Z,15.89
2022-09-28T00:32:47.931Z,15.88
2022-09-28T00:33:56.830Z,15.92
2022-09-28T00:35:00.856Z,15.91
2022-09-28T00:36:03.208Z,15.91
2022-09-28T00:37:08.378Z,15.92
2022-09-28T00:38:11.890Z,15.94
2022-09-28T00:39:16.528Z,15.96
2022-09-28T00:40:19.978Z,16.01
2022-09-28T00:41:27.731Z,15.98
2022-09-28T00:42:31.225Z,15.99
2022-09-28T00:43:35.253Z,15.96
2022-09-28T00:44:40.436Z,15.94
2022-09-28T00:45:45.064Z,15.95
2022-09-28T00:46:55.053Z,15.95
2022-09-28T00:47:59.509Z,15.95
2022-09-28T00:49:04.999Z,15.95
2022-09-28T00:50:22.299Z,15.99
2022-09-28T00:51:28.246Z,16.00
2022-09-28T00:52:36.623Z,16.00
2022-09-28T00:53:42.623Z,15.97
2022-09-28T00:54:49.210Z,15.92
2022-09-28T00:55:56.129Z,15.92
2022-09-28T00:57:01.599Z,15.95
2022-09-28T00:58:07.621Z,15.96
2022-09-28T00:59:11.647Z,15.90
2022-09-28T01:00:15.780Z,15.85
2022-09-28T01:01:20.364Z,15.86
2022-09-28T01:02:23.655Z,15.80
2022-09-28T01:03:30.147Z,15.82
2022-09-28T01:05:40.256Z,15.81
2022-09-28T01:06:46.002Z,15.80
2022-09-28T01:07:49.923Z,15.81
2022-09-28T01:08:54.342Z,15.79
2022-09-28T01:09:58.083Z,15.80
2022-09-28T01:11:01.686Z,15.86
2022-09-28T01:12:05.185Z,15.89
2022-09-28T01:13:17.057Z,15.90
2022-09-28T01:14:20.864Z,15.93
2022-09-28T01:15:27.234Z,15.81
2022-09-28T01:16:33.924Z,15.85
2022-09-28T01:17:44.867Z,15.85
2022-09-28T01:19:08.412Z,15.85
2022-09-28T01:20:12.544Z,15.89
2022-09-28T01:21:23.882Z,15.94
2022-09-28T01:22:28.755Z,15.90
2022-09-28T01:23:39.562Z,15.91
2022-09-28T01:24:47.778Z,15.95
2022-09-28T01:25:53.306Z,15.95
2022-09-28T01:27:01.198Z,15.93
2022-09-28T01:28:08.842Z,15.94
2022-09-28T01:29:14.942Z,16.01
2022-09-28T01:30:20.762Z,15.94
2022-09-28T01:31:29.409Z,15.96
2022-09-28T01:32:37.798Z,16.03
2022-09-28T01:33:42.040Z,16.03
2022-09-28T01:35:05.387Z,16.03
2022-09-28T01:36:10.671Z,16.02
2022-09-28T01:37:16.770Z,16.05
2022-09-28T01:38:25.022Z,16.04
2022-09-28T01:39:33.389Z,15.97
2022-09-28T01:40:38.290Z,15.89
2022-09-28T01:41:47.319Z,15.85
2022-09-28T01:42:52.575Z,15.86
2022-09-28T01:43:58.855Z,15.89
2022-09-28T01:45:04.084Z,15.90
2022-09-28T01:46:14.734Z,15.93
2022-09-28T01:47:21.112Z,15.95
2022-09-28T01:48:43.628Z,15.87
2022-09-28T01:49:59.674Z,15.82
2022-09-28T01:51:04.853Z,15.87
2022-09-28T01:52:28.725Z,15.89
2022-09-28T01:53:40.940Z,15.86
2022-09-28T01:54:49.601Z,15.91
2022-09-28T01:55:58.811Z,15.91
2022-09-28T01:57:04.251Z,15.91
2022-09-28T01:58:11.204Z,15.97
2022-09-28T01:59:21.715Z,15.97
2022-09-28T02:00:27.027Z,16.02
2022-09-28T02:01:33.635Z,16.02
2022-09-28T02:02:41.217Z,16.02
2022-09-28T02:03:48.583Z,16.03
2022-09-28T02:04:52.922Z,16.00
2022-09-28T02:05:58.205Z,16.01
2022-09-28T02:07:06.618Z,15.99
2022-09-28T02:08:12.021Z,15.97
2022-09-28T02:09:17.377Z,15.92
2022-09-28T02:10:25.651Z,15.97
2022-09-28T02:11:30.653Z,16.01
2022-09-28T02:12:37.972Z,16.01
2022-09-28T02:13:44.332Z,15.98
2022-09-28T02:14:51.007Z,16.00
2022-09-28T02:15:57.197Z,16.01
2022-09-28T02:17:01.644Z,16.03
2022-09-28T02:18:05.795Z,16.02
2022-09-28T02:19:11.586Z,16.04
2022-09-28T02:20:15.901Z,16.03
2022-09-28T02:21:24.047Z,16.05
2022-09-28T02:22:30.155Z,16.04
2022-09-28T02:23:34.699Z,16.06
2022-09-28T02:24:39.672Z,16.05
2022-09-28T02:25:46.194Z,16.07
2022-09-28T02:26:51.842Z,16.04
2022-09-28T02:28:01.238Z,16.02
2022-09-28T02:29:05.495Z,16.04
2022-09-28T02:30:09.347Z,16.06
2022-09-28T02:31:14.357Z,16.02
2022-09-28T02:32:19.248Z,16.03
2022-09-28T02:33:24.878Z,15.94
2022-09-28T02:34:28.333Z,15.92
2022-09-28T02:35:30.805Z,15.95
2022-09-28T02:36:35.344Z,15.97
2022-09-28T02:37:39.414Z,15.95
2022-09-28T02:38:42.573Z,15.94
2022-09-28T02:39:47.721Z,15.98
2022-09-28T02:40:53.887Z,15.99
2022-09-28T02:42:04.370Z,16.01
2022-09-28T02:43:15.384Z,16.01
2022-09-28T02:44:21.191Z,16.05
2022-09-28T02:45:31.195Z,15.99
2022-09-28T02:46:48.250Z,15.93
2022-09-28T02:48:02.248Z,15.87
2022-09-28T02:49:21.531Z,15.87
2022-09-28T02:50:22.487Z,15.80
2022-09-28T02:51:35.102Z,15.78
2022-09-28T02:52:43.312Z,15.79
2022-09-28T02:53:49.390Z,15.85
2022-09-28T02:55:01.782Z,15.90
2022-09-28T02:56:21.766Z,15.84
2022-09-28T02:57:27.176Z,15.86
2022-09-28T02:58:54.275Z,15.90
2022-09-28T03:00:03.427Z,15.92
2022-09-28T03:01:11.464Z,15.96
2022-09-28T03:02:16.869Z,16.00
2022-09-28T03:03:39.218Z,16.00
2022-09-28T03:04:44.388Z,15.92
2022-09-28T03:06:00.845Z,15.94
2022-09-28T03:07:14.695Z,15.96
2022-09-28T03:08:22.058Z,15.96
2022-09-28T03:09:29.952Z,15.98
2022-09-28T03:10:35.231Z,15.98
2022-09-28T03:11:39.467Z,16.00
2022-09-28T03:12:46.012Z,16.00
2022-09-28T03:13:52.221Z,16.03
2022-09-28T03:15:17.600Z,16.04
2022-09-28T03:16:21.366Z,16.00
2022-09-28T03:17:25.611Z,15.96
2022-09-28T03:18:28.433Z,16.00
2022-09-28T03:19:35.129Z,16.04
2022-09-28T03:20:38.438Z,16.05
2022-09-28T03:21:45.568Z,16.05
2022-09-28T03:23:12.339Z,16.03
2022-09-28T03:23:54.161Z,15.99
2022-09-28T03:24:58.294Z,15.94
2022-09-28T03:26:01.706Z,15.95
2022-09-28T03:27:06.422Z,15.91
2022-09-28T03:28:09.589Z,15.97
2022-09-28T03:29:14.742Z,16.01
2022-09-28T03:30:19.162Z,15.97
2022-09-28T03:31:23.532Z,15.90
2022-09-28T03:32:26.494Z,15.84
2022-09-28T03:33:28.852Z,15.78
2022-09-28T03:34:32.144Z,15.83
2022-09-28T03:35:35.560Z,15.82
2022-09-28T03:36:38.351Z,15.83
2022-09-28T03:37:43.742Z,15.87
2022-09-28T03:38:48.076Z,15.85
2022-09-28T03:39:52.282Z,15.86
2022-09-28T03:40:56.851Z,15.89
2022-09-28T03:42:00.441Z,15.87
2022-09-28T03:43:03.632Z,15.94
2022-09-28T03:44:07.347Z,15.95
2022-09-28T03:45:10.331Z,15.76
2022-09-28T03:46:13.113Z,15.74
2022-09-28T03:47:18.571Z,15.75
2022-09-28T03:48:28.682Z,15.76
2022-09-28T03:49:30.093Z,15.80
2022-09-28T03:50:33.807Z,15.79
2022-09-28T03:51:38.563Z,15.78
2022-09-28T03:52:43.428Z,15.78
2022-09-28T03:53:47.445Z,15.80
2022-09-28T03:54:50.638Z,15.83
2022-09-28T03:55:54.468Z,15.83
2022-09-28T03:56:57.762Z,15.77
2022-09-28T03:58:00.108Z,15.79
2022-09-28T03:59:05.075Z,15.72
2022-09-28T04:00:09.975Z,15.69
2022-09-28T04:01:19.157Z,15.70
2022-09-28T04:02:26.121Z,15.74
2022-09-28T04:03:29.433Z,15.76
2022-09-28T04:04:32.940Z,15.79
2022-09-28T04:05:36.349Z,15.84
2022-09-28T04:06:39.845Z,15.80
2022-09-28T04:07:42.733Z,15.77
2022-09-28T04:08:47.795Z,15.78
2022-09-28T04:09:53.944Z,15.74
2022-09-28T04:10:58.473Z,15.74
2022-09-28T04:12:04.349Z,15.75
2022-09-28T04:13:10.070Z,15.78
2022-09-28T04:14:14.418Z,15.74
2022-09-28T04:15:18.687Z,15.74
2022-09-28T04:16:22.624Z,15.68
2022-09-28T04:17:27.886Z,15.68
2022-09-28T04:18:35.345Z,15.70
2022-09-28T04:19:52.490Z,15.78
2022-09-28T04:21:03.995Z,15.73
2022-09-28T04:22:13.814Z,15.77
2022-09-28T04:23:17.028Z,15.80
2022-09-28T04:24:20.638Z,15.81
2022-09-28T04:25:24.341Z,15.80
2022-09-28T04:26:28.174Z,15.82
2022-09-28T04:27:52.075Z,15.86
2022-09-28T04:29:15.183Z,15.81
2022-09-28T04:30:21.614Z,15.83
2022-09-28T04:31:25.115Z,15.85
2022-09-28T04:32:27.580Z,15.81
2022-09-28T04:33:33.035Z,15.85
2022-09-28T04:34:39.612Z,15.89
2022-09-28T04:35:41.959Z,15.89
2022-09-28T04:36:46.403Z,15.85
2022-09-28T04:37:49.587Z,15.85
2022-09-28T04:38:53.600Z,15.84
2022-09-28T04:39:59.215Z,15.83
2022-09-28T04:41:03.930Z,15.89
2022-09-28T04:42:10.394Z,15.90
2022-09-28T04:43:15.476Z,15.92
2022-09-28T04:44:18.249Z,15.96
2022-09-28T04:45:23.728Z,15.92
2022-09-28T04:46:28.500Z,15.92
2022-09-28T04:47:38.156Z,15.90
2022-09-28T04:48:46.893Z,15.91
2022-09-28T04:49:51.954Z,15.87
2022-09-28T04:50:57.338Z,15.91
2022-09-28T04:52:00.228Z,15.91
2022-09-28T04:53:04.021Z,15.85
2022-09-28T04:54:07.549Z,15.93
2022-09-28T04:55:13.738Z,15.92
2022-09-28T04:56:18.246Z,15.97
2022-09-28T04:57:21.498Z,15.95
2022-09-28T04:58:24.938Z,15.94
2022-09-28T04:59:31.609Z,15.89
2022-09-28T05:00:38.962Z,15.91
2022-09-28T05:01:56.312Z,15.92
2022-09-28T05:03:18.402Z,15.98
2022-09-28T05:04:39.674Z,15.99
2022-09-28T05:05:45.895Z,16.02
2022-09-28T05:07:06.623Z,16.03
2022-09-28T05:08:11.745Z,16.02
2022-09-28T05:09:18.628Z,16.06
2022-09-28T05:10:23.000Z,16.07
2022-09-28T05:11:27.641Z,16.08
2022-09-28T05:12:31.670Z,16.11
2022-09-28T05:13:41.033Z,16.14
2022-09-28T05:14:44.048Z,16.17
2022-09-28T05:15:48.034Z,16.18
2022-09-28T05:16:52.115Z,16.16
2022-09-28T05:18:00.210Z,16.19
2022-09-28T05:19:09.347Z,16.13
2022-09-28T05:20:13.751Z,16.07
2022-09-28T05:21:21.444Z,16.05
2022-09-28T05:22:24.950Z,16.10
2022-09-28T05:23:28.443Z,16.18
2022-09-28T05:24:33.306Z,16.16
2022-09-28T05:25:36.824Z,16.17
2022-09-28T05:26:44.703Z,16.17
2022-09-28T05:27:51.390Z,16.19
2022-09-28T05:29:02.263Z,16.20
2022-09-28T05:30:20.007Z,16.22
2022-09-28T05:31:25.280Z,16.22
2022-09-28T05:32:49.774Z,16.15
2022-09-28T05:34:00.997Z,16.26
2022-09-28T05:35:06.847Z,16.15
2022-09-28T05:37:24.872Z,16.29
2022-09-28T05:38:29.945Z,16.29
2022-09-28T05:39:33.449Z,16.35
2022-09-28T05:40:39.092Z,16.36
2022-09-28T05:41:42.451Z,16.33
2022-09-28T05:42:46.062Z,16.30
2022-09-28T05:43:53.186Z,16.42
2022-09-28T05:44:58.887Z,16.55
2022-09-28T05:46:02.370Z,16.68
2022-09-28T05:47:04.889Z,16.73
2022-09-28T05:48:08.797Z,16.79
2022-09-28T05:49:12.164Z,16.86
2022-09-28T05:50:16.248Z,16.90
2022-09-28T05:51:19.051Z,16.78
2022-09-28T05:52:23.797Z,16.77
2022-09-28T05:53:26.996Z,16.69
2022-09-28T05:54:30.464Z,16.69
2022-09-28T05:55:34.910Z,16.80
2022-09-28T05:56:37.911Z,16.80
2022-09-28T05:57:43.175Z,16.87
2022-09-28T05:58:47.408Z,16.98
2022-09-28T05:59:51.646Z,16.96
2022-09-28T06:00:56.350Z,16.89
2022-09-28T06:01:58.796Z,16.85
2022-09-28T06:03:08.670Z,16.78
2022-09-28T06:04:11.203Z,16.81
2022-09-28T06:05:15.475Z,16.86
2022-09-28T06:06:21.035Z,16.95
2022-09-28T06:07:24.953Z,17.07
2022-09-28T06:08:27.926Z,17.15
2022-09-28T06:09:33.468Z,17.22
2022-09-28T06:10:43.043Z,17.28
2022-09-28T06:11:46.493Z,17.28
2022-09-28T06:12:56.057Z,17.12
2022-09-28T06:14:00.098Z,17.13
2022-09-28T06:15:07.683Z,17.11
2022-09-28T06:16:12.769Z,17.15
2022-09-28T06:17:17.794Z,17.21
2022-09-28T06:18:23.087Z,17.31
2022-09-28T06:19:43.257Z,17.16
2022-09-28T06:21:03.519Z,17.18
2022-09-28T06:22:09.458Z,17.16
2022-09-28T06:23:19.304Z,17.13
2022-09-28T06:24:22.692Z,17.14
2022-09-28T06:25:31.566Z,17.11
2022-09-28T06:26:35.135Z,17.16
2022-09-28T06:27:39.997Z,17.14
2022-09-28T06:28:44.442Z,17.17
2022-09-28T06:29:47.842Z,17.22
2022-09-28T06:30:51.404Z,17.29
2022-09-28T06:31:55.279Z,17.25
2022-09-28T06:32:59.923Z,17.21
2022-09-28T06:34:04.308Z,17.23
2022-09-28T06:35:09.252Z,17.27
2022-09-28T06:36:12.644Z,17.25
2022-09-28T06:37:16.044Z,17.32
2022-09-28T06:38:18.911Z,17.36
2022-09-28T06:39:22.637Z,17.42
2022-09-28T06:40:29.016Z,17.43
2022-09-28T06:41:34.660Z,17.46
2022-09-28T06:42:41.705Z,17.44
2022-09-28T06:43:50.223Z,17.19
2022-09-28T06:45:12.006Z,17.06
2022-09-28T06:46:33.065Z,17.06
2022-09-28T06:47:59.589Z,16.99
2022-09-28T06:49:16.099Z,17.02
2022-09-28T06:50:34.649Z,17.17
2022-09-28T06:51:56.757Z,17.27
2022-09-28T06:53:09.248Z,17.27
2022-09-28T06:54:26.838Z,17.16
2022-09-28T06:55:33.079Z,16.92
2022-09-28T06:56:37.326Z,16.99
2022-09-28T06:57:40.583Z,17.10
2022-09-28T06:58:44.003Z,17.14
2022-09-28T06:59:48.334Z,17.13
2022-09-28T07:00:58.380Z,17.07
2022-09-28T07:02:02.495Z,17.06
2022-09-28T07:03:26.944Z,17.05
2022-09-28T07:04:38.179Z,17.11
2022-09-28T07:05:45.144Z,17.00
2022-09-28T07:07:09.350Z,17.01
2022-09-28T07:08:33.094Z,16.91
2022-09-28T07:09:45.010Z,17.02
2022-09-28T07:11:01.924Z,17.04
2022-09-28T07:12:08.962Z,17.19
2022-09-28T07:13:43.350Z,17.26
2022-09-28T07:14:44.974Z,17.32
2022-09-28T07:15:30.787Z,17.34
2022-09-28T07:17:00.722Z,17.19
2022-09-28T07:17:54.484Z,17.35
2022-09-28T07:18:45.374Z,17.32
2022-09-28T07:19:54.717Z,17.27
2022-09-28T07:20:58.791Z,17.05
2022-09-28T07:22:05.569Z,17.11
2022-09-28T07:23:18.970Z,17.20
2022-09-28T07:24:35.802Z,17.32
2022-09-28T07:25:59.793Z,17.47
2022-09-28T07:27:07.964Z,17.78
2022-09-28T07:28:13.473Z,18.03
2022-09-28T07:29:21.563Z,18.20
2022-09-28T07:30:37.204Z,18.26
2022-09-28T07:31:44.889Z,18.31
2022-09-28T07:32:50.010Z,18.16
2022-09-28T07:34:08.066Z,17.92
2022-09-28T07:35:16.628Z,18.12
2022-09-28T07:36:30.857Z,18.20
2022-09-28T07:37:36.233Z,18.07
2022-09-28T07:38:39.852Z,17.89
2022-09-28T07:40:01.012Z,17.90
2022-09-28T07:41:13.748Z,18.10
2022-09-28T07:42:18.883Z,18.18
2022-09-28T07:43:23.107Z,18.19
2022-09-28T07:44:30.278Z,18.18
2022-09-28T07:45:40.077Z,18.30
2022-09-28T07:46:44.277Z,18.35
2022-09-28T07:47:49.672Z,18.44
2022-09-28T07:49:09.828Z,18.40
2022-09-28T07:50:31.765Z,18.40
2022-09-28T07:51:36.943Z,18.42
2022-09-28T07:52:58.202Z,18.51
2022-09-28T07:54:08.103Z,18.84
2022-09-28T07:55:15.249Z,18.73
2022-09-28T07:56:21.163Z,18.82
2022-09-28T07:57:28.727Z,18.94
2022-09-28T07:58:50.508Z,18.84
2022-09-28T07:59:55.580Z,18.49
2022-09-28T08:01:06.263Z,18.59
2022-09-28T08:02:11.292Z,18.63
2022-09-28T08:03:19.467Z,18.66
2022-09-28T08:04:26.875Z,18.89
2022-09-28T08:05:32.954Z,19.06
2022-09-28T08:06:36.037Z,19.25
2022-09-28T08:07:41.632Z,19.38
2022-09-28T08:08:47.130Z,19.40
2022-09-28T08:09:52.622Z,19.33
2022-09-28T08:11:08.649Z,19.06
2022-09-28T08:12:19.468Z,19.25
2022-09-28T08:13:30.622Z,19.03
2022-09-28T08:14:36.901Z,19.19
2022-09-28T08:15:50.870Z,19.40
2022-09-28T08:16:58.762Z,19.45
2022-09-28T08:18:04.888Z,19.65
2022-09-28T08:19:09.693Z,19.52
2022-09-28T08:20:31.325Z,19.51
2022-09-28T08:21:48.190Z,19.81
2022-09-28T08:22:50.562Z,20.00
2022-09-28T08:23:54.678Z,20.08
2022-09-28T08:24:57.985Z,20.13
2022-09-28T08:26:02.429Z,19.89
2022-09-28T08:27:05.934Z,19.75
2022-09-28T08:28:11.040Z,20.11
2022-09-28T08:29:16.394Z,19.87
2022-09-28T08:30:27.963Z,20.28
2022-09-28T08:31:50.348Z,20.32
2022-09-28T08:34:11.553Z,20.91
2022-09-28T08:35:33.349Z,20.87
2022-09-28T08:36:44.927Z,20.52
2022-09-28T08:38:07.826Z,20.08
2022-09-28T08:39:28.776Z,19.92
2022-09-28T08:40:36.002Z,19.89
2022-09-28T08:41:53.321Z,20.13
2022-09-28T08:43:03.835Z,20.23
2022-09-28T08:44:26.959Z,20.09
2022-09-28T08:45:37.282Z,19.69
2022-09-28T08:46:50.749Z,19.61
2022-09-28T08:48:34.100Z,19.50
2022-09-28T08:49:50.970Z,19.62
2022-09-28T08:51:00.062Z,20.00
2022-09-28T08:52:18.143Z,20.06
2022-09-28T08:53:40.867Z,19.95
2022-09-28T08:55:02.645Z,19.87
2022-09-28T08:56:18.158Z,19.83
2022-09-28T08:57:25.963Z,19.42
2022-09-28T08:58:31.237Z,19.43
2022-09-28T08:59:41.625Z,19.48
2022-09-28T09:00:50.210Z,19.68
2022-09-28T09:01:57.975Z,19.88
2022-09-28T09:03:08.120Z,20.14
2022-09-28T09:04:13.291Z,20.23
2022-09-28T09:05:41.319Z,19.89
2022-09-28T09:06:45.791Z,19.72
2022-09-28T09:08:12.484Z,19.85
2022-09-28T09:09:19.355Z,19.95
2022-09-28T09:10:26.925Z,20.02
2022-09-28T09:11:38.859Z,20.06
2022-09-28T09:13:03.402Z,20.11
2022-09-28T09:14:13.825Z,19.95
2022-09-28T09:15:24.778Z,20.12
2022-09-28T09:16:32.748Z,19.88
2022-09-28T09:17:44.355Z,20.24
2022-09-28T09:19:08.119Z,20.44
2022-09-28T09:20:20.958Z,20.72
2022-09-28T09:21:41.442Z,20.60
2022-09-28T09:22:55.914Z,20.88
2022-09-28T09:24:02.353Z,20.59
2022-09-28T09:25:18.811Z,20.23
2022-09-28T09:26:26.105Z,20.13
2022-09-28T09:27:31.553Z,20.27
2022-09-28T09:28:55.322Z,20.19
2022-09-28T09:30:05.419Z,20.39
2022-09-28T09:31:12.331Z,20.48
2022-09-28T09:32:24.334Z,20.77
2022-09-28T09:33:49.252Z,21.02
2022-09-28T09:35:14.576Z,21.64
2022-09-28T09:37:58.497Z,22.78
2022-09-28T09:39:41.871Z,23.20
2022-09-28T09:42:41.137Z,23.01
2022-09-28T09:44:04.874Z,22.57
2022-09-28T09:45:29.896Z,22.71
2022-09-28T09:46:35.895Z,22.43
2022-09-28T09:47:43.920Z,22.67
2022-09-28T09:49:08.820Z,22.76
2022-09-28T09:50:20.773Z,22.76
2022-09-28T09:51:30.212Z,22.30
2022-09-28T09:52:38.780Z,22.01
2022-09-28T09:53:45.863Z,22.30
2022-09-28T09:54:56.836Z,22.39
2022-09-28T09:56:24.894Z,21.79
2022-09-28T09:57:34.561Z,21.73
2022-09-28T09:58:40.891Z,21.50
2022-09-28T09:59:52.527Z,21.54
2022-09-28T10:01:05.402Z,21.58
2022-09-28T10:02:12.654Z,21.59
2022-09-28T10:03:21.747Z,21.43
2022-09-28T10:04:30.222Z,21.57
2022-09-28T10:05:37.252Z,21.73
2022-09-28T10:06:45.195Z,21.40
2022-09-28T10:07:53.725Z,21.22
2022-09-28T10:08:59.362Z,21.18
2022-09-28T10:10:03.762Z,21.24
2022-09-28T10:11:14.094Z,21.14
2022-09-28T10:12:20.594Z,21.25
2022-09-28T10:13:24.220Z,21.11
2022-09-28T10:14:31.972Z,21.02
2022-09-28T10:15:38.016Z,21.10
2022-09-28T10:16:45.666Z,21.31
2022-09-28T10:17:53.393Z,21.24
2022-09-28T10:19:18.239Z,20.98
2022-09-28T10:20:40.286Z,20.91
2022-09-28T10:21:50.997Z,21.02
2022-09-28T10:23:02.514Z,20.98
2022-09-28T10:24:08.051Z,20.77
2022-09-28T10:25:13.095Z,20.58
2022-09-28T10:26:26.514Z,20.60
2022-09-28T10:27:34.948Z,20.51
2022-09-28T10:28:42.563Z,20.52
2022-09-28T10:29:49.271Z,20.56
2022-09-28T10:30:53.808Z,20.53
2022-09-28T10:31:57.012Z,20.46
2022-09-28T10:33:03.230Z,20.33
2022-09-28T10:34:13.612Z,20.38
2022-09-28T10:35:19.538Z,20.33
2022-09-28T10:36:27.836Z,20.02
2022-09-28T10:37:31.351Z,19.85
2022-09-28T10:38:45.409Z,19.99
2022-09-28T10:39:57.291Z,20.06
2022-09-28T10:41:03.923Z,20.24
2022-09-28T10:42:17.540Z,20.31
2022-09-28T10:43:33.854Z,20.29
2022-09-28T10:44:39.686Z,20.33
2022-09-28T10:45:52.633Z,20.24
2022-09-28T10:46:58.809Z,20.17
2022-09-28T10:48:04.936Z,20.34
2022-09-28T10:49:19.043Z,20.34
2022-09-28T10:50:27.959Z,20.36
2022-09-28T10:51:54.927Z,20.09
2022-09-28T10:53:14.211Z,20.13
2022-09-28T10:54:38.494Z,20.10
2022-09-28T10:55:42.397Z,20.17
2022-09-28T10:56:48.153Z,19.95
2022-09-28T10:57:52.982Z,19.94
2022-09-28T10:58:56.792Z,20.14
2022-09-28T11:00:03.334Z,20.08
2022-09-28T11:01:10.399Z,20.14
2022-09-28T11:02:18.098Z,20.25
2022-09-28T11:03:24.088Z,20.32
2022-09-28T11:04:32.904Z,20.38
2022-09-28T11:05:39.155Z,20.36
2022-09-28T11:06:44.317Z,20.53
2022-09-28T11:07:49.222Z,20.71
2022-09-28T11:08:56.548Z,20.92
2022-09-28T11:10:02.456Z,20.93
2022-09-28T11:11:09.522Z,21.01
2022-09-28T11:12:16.778Z,21.20
2022-09-28T11:13:20.281Z,21.23
2022-09-28T11:14:31.446Z,21.01
2022-09-28T11:15:35.336Z,21.25
2022-09-28T11:16:41.533Z,21.29
2022-09-28T11:17:46.931Z,21.39
2022-09-28T11:18:52.628Z,21.27
2022-09-28T11:19:57.281Z,20.96
2022-09-28T11:21:16.727Z,21.00
2022-09-28T11:22:26.245Z,21.08
2022-09-28T11:23:31.310Z,21.27
2022-09-28T11:24:37.007Z,21.32
2022-09-28T11:25:43.054Z,21.47
2022-09-28T11:26:49.430Z,21.58
2022-09-28T11:27:56.609Z,21.60
2022-09-28T11:28:58.744Z,21.44
2022-09-28T11:30:03.219Z,21.47
2022-09-28T11:31:07.789Z,21.27
2022-09-28T11:32:33.540Z,21.17
2022-09-28T11:35:12.672Z,21.20
2022-09-28T11:36:20.054Z,20.99
2022-09-28T11:37:33.994Z,20.84
2022-09-28T11:38:55.056Z,20.69
2022-09-28T11:40:06.395Z,20.44
2022-09-28T11:41:22.955Z,20.37
2022-09-28T11:42:29.270Z,20.46
2022-09-28T11:43:51.376Z,20.69
2022-09-28T11:44:59.372Z,20.74
2022-09-28T11:46:03.545Z,20.50
2022-09-28T11:47:11.489Z,20.50
2022-09-28T11:48:31.916Z,20.26
2022-09-28T11:49:44.517Z,20.46
2022-09-28T11:50:59.398Z,20.59
2022-09-28T11:52:04.274Z,20.62
2022-09-28T11:53:18.332Z,20.80
2022-09-28T11:54:30.644Z,20.93
2022-09-28T11:55:45.698Z,20.90
2022-09-28T11:56:51.180Z,20.92
2022-09-28T11:58:04.514Z,20.87
2022-09-28T11:59:27.022Z,20.92
2022-09-28T12:00:32.519Z,20.89
2022-09-28T12:01:38.771Z,20.89
2022-09-28T12:02:52.925Z,21.02
2022-09-28T12:04:01.011Z,20.71
2022-09-28T12:05:19.863Z,20.78
2022-09-28T12:06:21.894Z,20.61
2022-09-28T12:07:30.513Z,20.28
2022-09-28T12:08:37.477Z,20.11
2022-09-28T12:09:44.636Z,20.10
2022-09-28T12:10:54.864Z,20.13
2022-09-28T12:12:02.409Z,20.26
2022-09-28T12:13:21.473Z,20.24
2022-09-28T12:14:32.259Z,20.07
2022-09-28T12:16:06.878Z,20.02
2022-09-28T12:18:07.923Z,20.04
2022-09-28T12:19:15.640Z,19.86
2022-09-28T12:20:20.616Z,19.94
2022-09-28T12:21:37.279Z,20.08
2022-09-28T12:22:44.137Z,20.03
2022-09-28T12:23:49.337Z,19.94
2022-09-28T12:24:54.181Z,20.16
2022-09-28T12:26:02.893Z,20.22
2022-09-28T12:27:07.338Z,20.13
2022-09-28T12:28:16.076Z,20.01
2022-09-28T12:29:21.463Z,19.88
2022-09-28T12:30:26.429Z,19.96
2022-09-28T12:31:30.977Z,19.92
2022-09-28T12:32:38.973Z,19.96
2022-09-28T12:33:43.211Z,19.92
2022-09-28T12:34:46.497Z,19.71
2022-09-28T12:35:57.743Z,19.88
2022-09-28T12:37:10.425Z,20.09
2022-09-28T12:38:26.267Z,20.31
2022-09-28T12:39:56.530Z,20.43
2022-09-28T12:40:50.678Z,20.53
2022-09-28T12:41:56.523Z,20.43
2022-09-28T12:43:07.651Z,20.40
2022-09-28T12:44:17.841Z,20.42
2022-09-28T12:45:25.315Z,20.50
2022-09-28T12:46:39.013Z,20.57
2022-09-28T12:47:44.339Z,20.81
2022-09-28T12:49:24.113Z,20.91
2022-09-28T12:51:24.297Z,20.94
2022-09-28T12:52:46.504Z,20.58
2022-09-28T12:54:03.478Z,20.69
2022-09-28T12:55:18.366Z,20.48
2022-09-28T12:56:26.340Z,20.51
2022-09-28T12:57:48.876Z,20.48
2022-09-28T12:58:56.048Z,20.43
2022-09-28T13:00:02.372Z,20.39
2022-09-28T13:01:15.768Z,20.42
2022-09-28T13:02:25.204Z,20.17
2022-09-28T13:03:33.883Z,20.33
2022-09-28T13:04:44.625Z,20.31
2022-09-28T13:06:08.154Z,20.40
2022-09-28T13:07:15.941Z,20.63
2022-09-28T13:08:26.131Z,20.36
2022-09-28T13:09:33.120Z,20.38
2022-09-28T13:10:39.428Z,20.62
2022-09-28T13:11:50.433Z,20.67
2022-09-28T13:13:11.904Z,20.56
2022-09-28T13:14:34.318Z,20.75
2022-09-28T13:15:42.251Z,20.53
2022-09-28T13:16:48.522Z,20.30
2022-09-28T13:17:56.618Z,20.36
2022-09-28T13:19:01.589Z,20.49
2022-09-28T13:20:05.927Z,20.60
2022-09-28T13:21:11.013Z,20.38
2022-09-28T13:22:27.885Z,20.23
2022-09-28T13:23:36.195Z,20.26
2022-09-28T13:24:42.692Z,20.15
2022-09-28T13:25:50.619Z,20.08
2022-09-28T13:26:55.159Z,19.99
2022-09-28T13:28:02.954Z,19.92
2022-09-28T13:29:07.956Z,19.96
2022-09-28T13:30:14.971Z,19.97
2022-09-28T13:31:20.365Z,19.97
2022-09-28T13:32:28.739Z,19.92
2022-09-28T13:33:35.735Z,19.86
2022-09-28T13:34:39.748Z,19.87
2022-09-28T13:35:45.612Z,19.90
2022-09-28T13:37:07.960Z,19.88
2022-09-28T13:38:17.942Z,19.86
2022-09-28T13:39:34.519Z,19.93
2022-09-28T13:40:56.757Z,19.92
2022-09-28T13:42:00.741Z,19.71
2022-09-28T13:43:08.023Z,19.70
2022-09-28T13:44:18.242Z,19.70
2022-09-28T13:45:23.361Z,19.80
2022-09-28T13:46:46.296Z,19.87
2022-09-28T13:47:55.303Z,19.80
2022-09-28T13:48:59.827Z,19.92
2022-09-28T13:50:17.395Z,19.69
2022-09-28T13:51:25.403Z,19.86
2022-09-28T13:52:31.820Z,20.12
2022-09-28T13:53:40.584Z,20.28
2022-09-28T13:54:57.737Z,20.20
2022-09-28T13:56:17.535Z,20.05
2022-09-28T13:57:29.292Z,20.16
2022-09-28T13:58:42.094Z,20.07
2022-09-28T13:59:47.886Z,19.95
2022-09-28T14:00:53.271Z,19.82
2022-09-28T14:01:58.560Z,19.96
2022-09-28T14:03:21.669Z,20.04
2022-09-28T14:04:27.912Z,20.00
2022-09-28T14:05:37.798Z,19.82
2022-09-28T14:06:49.470Z,19.90
2022-09-28T14:08:00.074Z,19.86
2022-09-28T14:09:11.919Z,19.78
2022-09-28T14:10:25.700Z,19.79
2022-09-28T14:11:38.555Z,19.66
2022-09-28T14:12:47.386Z,19.51
2022-09-28T14:14:01.602Z,19.61
2022-09-28T14:15:07.768Z,19.63
2022-09-28T14:16:21.539Z,19.66
2022-09-28T14:17:28.041Z,19.73
2022-09-28T14:18:34.784Z,19.45
2022-09-28T14:19:39.135Z,19.45
2022-09-28T14:20:43.611Z,19.59
2022-09-28T14:22:04.109Z,19.65
2022-09-28T14:23:26.208Z,19.70
2022-09-28T14:24:33.468Z,19.44
2022-09-28T14:25:38.327Z,19.29
2022-09-28T14:26:59.281Z,19.29
2022-09-28T14:28:24.201Z,19.33
2022-09-28T14:29:31.988Z,19.34
2022-09-28T14:30:44.939Z,19.47
2022-09-28T14:31:48.712Z,19.42
2022-09-28T14:32:53.875Z,19.43
2022-09-28T14:34:01.869Z,19.28
2022-09-28T14:35:08.095Z,19.31
2022-09-28T14:36:58.202Z,19.18
2022-09-28T14:38:21.611Z,19.28
2022-09-28T14:39:49.700Z,19.09
2022-09-28T14:41:13.258Z,18.95
2022-09-28T14:42:22.298Z,19.09
2022-09-28T14:43:26.431Z,19.23
2022-09-28T14:44:32.154Z,19.11
2022-09-28T14:45:38.034Z,19.08
2022-09-28T14:46:46.102Z,19.08
2022-09-28T14:47:53.611Z,18.96
2022-09-28T14:48:59.101Z,19.08
2022-09-28T14:50:02.703Z,19.13
2022-09-28T14:51:24.909Z,19.19
2022-09-28T14:52:39.059Z,19.06
2022-09-28T14:53:42.575Z,19.07
2022-09-28T14:54:47.854Z,19.09
2022-09-28T14:55:53.123Z,19.01
2022-09-28T14:57:01.438Z,19.06